createdAt,value
2023-03-11T00:00:56.689Z,0.90
2023-03-11T00:03:24.412Z,1.33
2023-03-11T00:05:53.341Z,1.55
2023-03-11T00:08:24.187Z,1.08
2023-03-11T00:10:56.453Z,1.75
2023-03-11T00:13:23.935Z,1.17
2023-03-11T00:15:55.969Z,1.30
2023-03-11T00:18:26.871Z,1.17
2023-03-11T00:20:55.725Z,1.70
2023-03-11T00:23:25.342Z,1.45
2023-03-11T00:25:52.635Z,1.30
2023-03-11T00:28:20.858Z,3.22
2023-03-11T00:30:49.950Z,1.40
2023-03-11T00:33:17.341Z,1.75
2023-03-11T00:35:44.861Z,1.42
2023-03-11T00:38:19.666Z,1.17
2023-03-11T00:40:50.325Z,1.08
2023-03-11T00:43:19.780Z,1.20
2023-03-11T00:45:49.697Z,4.75
2023-03-11T00:48:16.669Z,11.35
2023-03-11T00:50:43.703Z,4.55
2023-03-11T00:53:11.481Z,2.70
2023-03-11T00:55:38.636Z,1.58
2023-03-11T00:58:10.286Z,1.83
2023-03-11T01:03:06.349Z,1.05
2023-03-11T01:05:36.287Z,1.35
2023-03-11T01:08:04.600Z,1.58
2023-03-11T01:10:35.657Z,1.10
2023-03-11T01:13:03.704Z,1.50
2023-03-11T01:15:37.642Z,1.30
2023-03-11T01:18:10.580Z,1.40
2023-03-11T01:20:41.270Z,1.40
2023-03-11T01:23:11.499Z,1.17
2023-03-11T01:25:43.964Z,1.17
2023-03-11T01:28:12.946Z,1.10
2023-03-11T01:30:41.807Z,1.23
2023-03-11T01:33:15.741Z,1.17
2023-03-11T01:35:43.574Z,1.75
2023-03-11T01:38:11.900Z,1.17
2023-03-11T01:40:51.464Z,1.30
2023-03-11T01:43:36.554Z,1.35
2023-03-11T01:46:09.902Z,1.13
2023-03-11T01:48:38.790Z,1.83
2023-03-11T01:51:07.341Z,1.27
2023-03-11T01:53:35.052Z,1.50
2023-03-11T01:56:04.683Z,1.63
2023-03-11T01:58:38.038Z,1.25
2023-03-11T02:01:08.257Z,1.20
2023-03-11T02:03:39.781Z,1.40
2023-03-11T02:06:15.248Z,1.27
2023-03-11T02:08:43.576Z,1.20
2023-03-11T02:11:17.055Z,1.30
2023-03-11T02:13:45.844Z,1.42
2023-03-11T02:16:14.324Z,1.50
2023-03-11T02:18:42.916Z,1.30
2023-03-11T02:21:32.208Z,1.60
2023-03-11T02:24:20.606Z,1.30
2023-03-11T02:26:58.729Z,1.40
2023-03-11T02:29:28.252Z,1.13
2023-03-11T02:31:59.218Z,1.70
2023-03-11T02:34:35.227Z,1.60
2023-03-11T02:37:09.369Z,1.40
2023-03-11T02:39:39.536Z,1.58
2023-03-11T02:42:14.538Z,1.60
2023-03-11T02:44:47.251Z,1.40
2023-03-11T02:47:15.469Z,1.90
2023-03-11T02:49:44.970Z,1.52
2023-03-11T02:52:16.469Z,1.40
2023-03-11T02:54:43.336Z,1.27
2023-03-11T02:57:10.183Z,1.30
2023-03-11T02:59:37.077Z,1.92
2023-03-11T03:02:06.668Z,1.33
2023-03-11T03:04:33.715Z,1.52
2023-03-11T03:07:03.132Z,1.83
2023-03-11T03:09:30.082Z,1.85
2023-03-11T03:11:56.941Z,1.58
2023-03-11T03:14:28.727Z,1.85
2023-03-11T03:16:55.940Z,1.45
2023-03-11T03:19:22.946Z,1.90
2023-03-11T03:21:49.840Z,3.25
2023-03-11T03:24:16.891Z,2.65
2023-03-11T03:26:43.763Z,1.80
2023-03-11T03:29:10.574Z,3.15
2023-03-11T03:31:42.309Z,1.40
2023-03-11T03:34:14.209Z,2.00
2023-03-11T03:36:43.686Z,2.13
2023-03-11T03:39:16.023Z,1.30
2023-03-11T03:41:45.422Z,2.75
2023-03-11T03:44:12.350Z,1.67
2023-03-11T03:46:41.266Z,2.03
2023-03-11T03:49:13.741Z,1.45
2023-03-11T03:51:40.661Z,2.17
2023-03-11T03:54:07.580Z,1.40
2023-03-11T03:56:34.476Z,1.38
2023-03-11T03:59:01.381Z,1.83
2023-03-11T04:01:30.676Z,1.45
2023-03-11T04:03:57.689Z,1.23
2023-03-11T04:06:28.790Z,1.95
2023-03-11T04:08:58.234Z,1.50
2023-03-11T04:11:25.168Z,1.58
2023-03-11T04:13:54.990Z,1.45
2023-03-11T04:16:24.525Z,1.75
2023-03-11T04:18:53.779Z,1.17
2023-03-11T04:21:25.133Z,1.65
2023-03-11T04:23:52.046Z,2.13
2023-03-11T04:26:23.883Z,1.55
2023-03-11T04:28:50.840Z,1.40
2023-03-11T04:31:17.766Z,2.13
2023-03-11T04:33:44.629Z,1.25
2023-03-11T04:36:16.520Z,1.70
2023-03-11T04:38:43.344Z,1.08
2023-03-11T04:41:10.320Z,1.23
2023-03-11T04:43:37.280Z,1.25
2023-03-11T04:46:04.484Z,2.50
2023-03-11T04:48:33.575Z,3.38
2023-03-11T04:51:00.822Z,1.00
2023-03-11T04:53:30.354Z,1.30
2023-03-11T04:55:57.255Z,1.80
2023-03-11T04:58:26.613Z,1.20
2023-03-11T05:00:54.222Z,2.05
2023-03-11T05:03:25.891Z,4.03
2023-03-11T05:05:56.591Z,1.90
2023-03-11T05:08:24.407Z,1.90
2023-03-11T05:10:56.568Z,2.10
2023-03-11T05:13:23.450Z,1.00
2023-03-11T05:15:50.427Z,1.65
2023-03-11T05:18:19.851Z,1.33
2023-03-11T05:20:49.895Z,2.78
2023-03-11T05:23:16.796Z,1.33
2023-03-11T05:25:44.025Z,1.00
2023-03-11T05:28:10.993Z,1.60
2023-03-11T05:30:37.941Z,0.60
2023-03-11T05:33:07.044Z,2.35
2023-03-11T05:35:36.021Z,1.30
2023-03-11T05:38:05.490Z,1.08
2023-03-11T05:40:34.885Z,0.63
2023-03-11T05:43:04.328Z,1.25
2023-03-11T05:45:31.235Z,1.23
2023-03-11T05:47:58.101Z,1.13
2023-03-11T05:50:24.958Z,0.75
2023-03-11T05:52:54.499Z,1.52
2023-03-11T05:55:21.367Z,1.00
2023-03-11T05:57:53.321Z,1.08
2023-03-11T06:00:25.282Z,0.93
2023-03-11T06:02:52.171Z,1.05
2023-03-11T06:05:21.264Z,1.08
2023-03-11T06:07:50.332Z,2.20
2023-03-11T06:10:21.953Z,0.95
2023-03-11T06:15:20.394Z,0.82
2023-03-11T06:17:47.255Z,1.25
2023-03-11T06:20:19.895Z,1.42
2023-03-11T06:22:52.307Z,1.10
2023-03-11T06:25:19.217Z,0.98
2023-03-11T06:27:55.473Z,0.60
2023-03-11T06:30:25.548Z,1.73
2023-03-11T06:32:52.507Z,1.05
2023-03-11T06:35:19.508Z,1.30
2023-03-11T06:37:46.458Z,1.80
2023-03-11T06:40:13.953Z,1.08
2023-03-11T06:42:43.068Z,1.17
2023-03-11T06:45:10.502Z,2.63
2023-03-11T06:47:39.828Z,0.60
2023-03-11T06:50:09.170Z,0.80
2023-03-11T06:52:38.568Z,0.75
2023-03-11T06:55:08.515Z,2.35
2023-03-11T06:57:35.474Z,1.15
2023-03-11T07:00:07.630Z,2.40
2023-03-11T07:02:34.502Z,1.30
2023-03-11T07:05:04.001Z,2.13
2023-03-11T07:07:30.882Z,1.77
2023-03-11T07:09:58.107Z,3.95
2023-03-11T07:12:25.448Z,1.58
2023-03-11T07:15:02.141Z,2.13
2023-03-11T07:17:31.289Z,1.80
2023-03-11T07:19:58.297Z,1.13
2023-03-11T07:22:27.348Z,2.50
2023-03-11T07:24:54.284Z,2.38
2023-03-11T07:27:22.524Z,2.45
2023-03-11T07:29:49.752Z,4.25
2023-03-11T07:32:19.682Z,1.60
2023-03-11T07:34:46.648Z,2.95
2023-03-11T07:37:14.198Z,2.10
2023-03-11T07:39:41.171Z,1.27
2023-03-11T07:42:12.638Z,6.07
2023-03-11T07:44:39.560Z,1.45
2023-03-11T07:47:06.768Z,3.35
2023-03-11T07:49:33.797Z,1.35
2023-03-11T07:52:03.618Z,4.22
2023-03-11T07:54:32.756Z,1.23
2023-03-11T07:57:00.013Z,1.83
2023-03-11T07:59:29.229Z,2.97
2023-03-11T08:01:58.571Z,1.65
2023-03-11T08:04:27.998Z,1.95
2023-03-11T08:06:57.220Z,2.45
2023-03-11T08:09:26.334Z,1.70
2023-03-11T08:11:53.209Z,3.17
2023-03-11T08:14:20.084Z,2.03
2023-03-11T08:16:47.044Z,1.33
2023-03-11T08:19:14.281Z,1.00
2023-03-11T08:21:41.178Z,3.22
2023-03-11T08:24:13.279Z,3.25
2023-03-11T08:26:43.249Z,2.10
2023-03-11T08:29:13.212Z,3.10
2023-03-11T08:31:40.117Z,1.98
2023-03-11T08:34:10.486Z,1.42
2023-03-11T08:36:37.674Z,1.83
2023-03-11T08:39:04.757Z,2.03
2023-03-11T08:41:34.379Z,2.20
2023-03-11T08:44:04.388Z,1.33
2023-03-11T08:46:37.136Z,1.67
2023-03-11T08:49:07.234Z,0.70
2023-03-11T08:51:34.691Z,0.65
2023-03-11T08:54:01.921Z,1.38
2023-03-11T08:56:32.028Z,1.88
2023-03-11T08:58:59.401Z,1.90
2023-03-11T09:01:30.130Z,1.33
2023-03-11T09:03:57.322Z,0.52
2023-03-11T09:06:24.528Z,0.68
2023-03-11T09:08:53.877Z,2.20
2023-03-11T09:11:23.434Z,1.35
2023-03-11T09:13:50.913Z,1.35
2023-03-11T09:16:23.696Z,1.00
2023-03-11T09:18:50.802Z,1.15
2023-03-11T09:21:17.934Z,1.13
2023-03-11T09:23:44.931Z,1.65
2023-03-11T09:26:14.821Z,2.50
2023-03-11T09:28:42.656Z,1.63
2023-03-11T09:31:09.892Z,0.80
2023-03-11T09:33:39.382Z,2.63
2023-03-11T09:36:07.988Z,1.67
2023-03-11T09:38:34.919Z,1.55
2023-03-11T09:41:13.439Z,0.95
2023-03-11T09:44:04.752Z,1.08
2023-03-11T09:46:59.539Z,2.80
2023-03-11T09:49:38.130Z,3.08
2023-03-11T09:52:16.394Z,1.17
2023-03-11T09:54:48.604Z,2.40
2023-03-11T09:57:29.632Z,1.55
2023-03-11T10:00:04.272Z,0.90
2023-03-11T10:02:32.864Z,1.55
2023-03-11T10:05:29.149Z,0.70
2023-03-11T10:08:11.623Z,1.10
2023-03-11T10:10:54.887Z,1.88
2023-03-11T10:13:55.761Z,0.98
2023-03-11T10:16:53.452Z,2.42
2023-03-11T10:19:34.675Z,2.97
2023-03-11T10:22:14.962Z,0.80
2023-03-11T10:25:00.600Z,1.63
2023-03-11T10:27:50.089Z,2.38
2023-03-11T10:30:48.261Z,1.42
2023-03-11T10:33:27.123Z,1.23
2023-03-11T10:36:06.762Z,0.80
2023-03-11T10:38:37.870Z,1.77
2023-03-11T10:41:20.336Z,0.93
2023-03-11T10:44:04.743Z,2.45
2023-03-11T10:46:31.830Z,1.38
2023-03-11T10:48:58.817Z,1.33
2023-03-11T10:51:33.571Z,1.08
2023-03-11T10:54:05.125Z,1.75
2023-03-11T10:56:41.470Z,1.33
2023-03-11T10:59:30.065Z,1.08
2023-03-11T11:02:23.281Z,1.02
2023-03-11T11:05:20.070Z,0.85
2023-03-11T11:07:49.721Z,0.93
2023-03-11T11:10:27.778Z,2.17
2023-03-11T11:13:08.263Z,0.70
2023-03-11T11:15:42.176Z,1.27
2023-03-11T11:18:18.628Z,1.52
2023-03-11T11:21:10.179Z,1.27
2023-03-11T11:23:54.015Z,1.65
2023-03-11T11:26:26.101Z,1.48
2023-03-11T11:29:15.067Z,1.55
2023-03-11T11:31:46.328Z,0.82
2023-03-11T11:34:35.305Z,0.70
2023-03-11T11:37:05.745Z,1.25
2023-03-11T11:40:11.504Z,0.73
2023-03-11T11:42:41.677Z,1.27
2023-03-11T11:45:34.361Z,2.20
2023-03-11T11:48:18.209Z,0.73
2023-03-11T11:50:52.978Z,0.70
2023-03-11T11:53:47.986Z,0.80
2023-03-11T11:56:15.112Z,1.15
2023-03-11T11:58:42.060Z,0.82
2023-03-11T12:01:20.845Z,2.33
2023-03-11T12:04:18.151Z,1.83
2023-03-11T12:06:50.708Z,1.52
2023-03-11T12:09:39.182Z,0.85
2023-03-11T12:12:29.769Z,1.13
2023-03-11T12:15:23.284Z,0.88
2023-03-11T12:17:55.937Z,0.55
2023-03-11T12:20:48.743Z,1.92
2023-03-11T12:23:54.968Z,0.93
2023-03-11T12:26:25.274Z,1.02
2023-03-11T12:29:07.160Z,2.55
2023-03-11T12:31:39.646Z,1.40
2023-03-11T12:34:12.403Z,2.33
2023-03-11T12:36:45.946Z,0.80
2023-03-11T12:39:43.113Z,1.50
2023-03-11T12:42:18.839Z,1.42
2023-03-11T12:44:47.378Z,4.63
2023-03-11T12:47:14.165Z,2.50
2023-03-11T12:49:41.918Z,1.33
2023-03-11T12:52:11.825Z,1.17
2023-03-11T12:55:01.117Z,2.15
2023-03-11T12:58:00.803Z,3.55
2023-03-11T13:01:00.878Z,1.02
2023-03-11T13:04:16.580Z,1.10
2023-03-11T13:07:22.453Z,1.50
2023-03-11T13:10:07.588Z,2.22
2023-03-11T13:12:57.530Z,1.10
2023-03-11T13:15:36.079Z,0.85
2023-03-11T13:18:26.922Z,2.88
2023-03-11T13:21:32.282Z,0.70
2023-03-11T13:24:34.004Z,3.33
2023-03-11T13:27:04.388Z,1.40
2023-03-11T13:29:54.996Z,1.47
2023-03-11T13:32:56.317Z,1.88
2023-03-11T13:35:45.282Z,0.98
2023-03-11T13:38:52.606Z,1.25
2023-03-11T13:41:36.335Z,1.73
2023-03-11T13:44:24.254Z,1.98
2023-03-11T13:47:15.029Z,2.78
2023-03-11T13:49:55.304Z,1.92
2023-03-11T13:52:37.092Z,1.02
2023-03-11T13:55:23.598Z,1.30
2023-03-11T13:57:56.383Z,1.40
2023-03-11T14:00:29.749Z,1.45
2023-03-11T14:02:59.514Z,1.88
2023-03-11T14:05:47.556Z,1.42
2023-03-11T14:08:29.674Z,1.00
2023-03-11T14:11:03.309Z,1.55
2023-03-11T14:13:45.844Z,1.33
2023-03-11T14:16:43.798Z,1.33
2023-03-11T14:19:20.659Z,1.50
2023-03-11T14:21:52.951Z,2.78
2023-03-11T14:24:29.474Z,1.45
2023-03-11T14:27:04.119Z,1.23
2023-03-11T14:29:38.029Z,1.33
2023-03-11T14:32:30.875Z,1.58
2023-03-11T14:35:00.357Z,1.02
2023-03-11T14:37:47.573Z,1.83
2023-03-11T14:40:32.698Z,1.23
2023-03-11T14:43:04.147Z,1.90
2023-03-11T14:45:37.408Z,1.60
2023-03-11T14:48:18.395Z,2.20
2023-03-11T14:50:49.379Z,1.27
2023-03-11T14:53:27.078Z,1.92
2023-03-11T14:56:21.124Z,1.40
2023-03-11T14:59:07.285Z,1.92
2023-03-11T15:01:41.182Z,1.67
2023-03-11T15:04:33.121Z,1.17
2023-03-11T15:09:30.832Z,1.85
2023-03-11T15:11:59.505Z,2.00
2023-03-11T15:14:32.686Z,1.45
2023-03-11T15:17:36.167Z,1.98
2023-03-11T15:20:34.570Z,1.05
2023-03-11T15:23:05.972Z,1.35
2023-03-11T15:25:37.842Z,1.20
2023-03-11T15:28:35.857Z,2.20
2023-03-11T15:31:37.720Z,1.38
2023-03-11T15:34:17.041Z,1.30
2023-03-11T15:36:52.902Z,1.45
2023-03-11T15:39:30.146Z,1.30
2023-03-11T15:42:26.666Z,2.47
2023-03-11T15:44:59.257Z,1.33
2023-03-11T15:47:26.246Z,2.95
2023-03-11T15:49:53.097Z,1.52
2023-03-11T15:52:20.472Z,2.33
2023-03-11T15:54:55.431Z,1.60
2023-03-11T15:57:29.673Z,2.13
2023-03-11T15:59:59.186Z,1.63
2023-03-11T16:02:33.076Z,1.40
2023-03-11T16:05:02.955Z,3.50
2023-03-11T16:07:39.452Z,2.35
2023-03-11T16:10:08.658Z,1.90
2023-03-11T16:12:35.660Z,1.42
2023-03-11T16:15:04.158Z,1.80
2023-03-11T16:17:46.789Z,1.48
2023-03-11T16:20:19.558Z,1.52
2023-03-11T16:22:52.179Z,1.60
2023-03-11T16:25:39.313Z,1.52
2023-03-11T16:28:10.359Z,1.40
2023-03-11T16:30:37.215Z,1.40
2023-03-11T16:33:08.718Z,2.72
2023-03-11T16:35:35.991Z,2.15
2023-03-11T16:38:03.038Z,1.85
2023-03-11T16:40:30.427Z,1.60
2023-03-11T16:43:17.844Z,4.15
2023-03-11T16:45:46.846Z,2.17
2023-03-11T16:48:18.247Z,2.33
2023-03-11T16:50:47.670Z,2.63
2023-03-11T16:53:17.460Z,1.98
2023-03-11T16:55:50.446Z,2.40
2023-03-11T16:58:17.390Z,2.22
2023-03-11T17:00:47.395Z,2.38
2023-03-11T17:03:18.216Z,1.58
2023-03-11T17:05:48.127Z,1.88
2023-03-11T17:08:18.387Z,2.15
2023-03-11T17:10:49.549Z,2.75
2023-03-11T17:13:19.268Z,2.63
2023-03-11T17:15:58.664Z,2.80
2023-03-11T17:18:26.011Z,2.33
2023-03-11T17:20:55.415Z,3.70
2023-03-11T17:23:22.312Z,3.33
2023-03-11T17:25:49.203Z,3.38
2023-03-11T17:28:18.530Z,2.85
2023-03-11T17:30:48.044Z,3.70
2023-03-11T17:33:17.179Z,2.03
2023-03-11T17:35:47.228Z,2.53
2023-03-11T17:38:16.751Z,2.85
2023-03-11T17:40:43.667Z,3.22
2023-03-11T17:43:10.664Z,2.50
2023-03-11T17:45:42.477Z,2.90
2023-03-11T17:48:09.351Z,3.70
2023-03-11T17:50:41.596Z,3.10
2023-03-11T17:53:13.797Z,2.20
2023-03-11T17:55:40.919Z,3.97
2023-03-11T17:58:14.604Z,2.58
2023-03-11T18:00:41.517Z,4.90
2023-03-11T18:03:10.611Z,2.20
2023-03-11T18:05:43.199Z,4.10
2023-03-11T18:08:13.120Z,3.50
2023-03-11T18:10:40.069Z,4.90
2023-03-11T18:13:09.951Z,3.13
2023-03-11T18:15:39.397Z,4.20
2023-03-11T18:18:06.379Z,3.08
2023-03-11T18:20:33.347Z,8.05
2023-03-11T18:23:02.744Z,5.93
2023-03-11T18:25:32.391Z,4.43
2023-03-11T18:27:59.300Z,3.35
2023-03-11T18:30:26.132Z,1.35
2023-03-11T18:32:53.076Z,3.13
2023-03-11T18:35:20.019Z,3.60
2023-03-11T18:37:46.882Z,4.93
2023-03-11T18:40:14.416Z,4.10
2023-03-11T18:42:43.813Z,3.13
2023-03-11T18:45:13.913Z,5.45
2023-03-11T18:47:40.852Z,3.13
2023-03-11T18:50:10.703Z,4.70
2023-03-11T18:52:37.683Z,3.75
2023-03-11T18:55:05.228Z,5.78
2023-03-11T18:57:32.073Z,2.95
2023-03-11T19:00:01.134Z,2.80
2023-03-11T19:02:30.546Z,4.25
2023-03-11T19:04:59.913Z,4.38
2023-03-11T19:07:29.254Z,3.67
2023-03-11T19:09:56.179Z,3.28
2023-03-11T19:12:29.552Z,2.13
2023-03-11T19:14:56.531Z,2.58
2023-03-11T19:17:23.384Z,2.45
2023-03-11T19:19:53.262Z,3.90
2023-03-11T19:22:22.415Z,4.03
2023-03-11T19:24:55.196Z,2.92
2023-03-11T19:27:22.019Z,2.20
2023-03-11T19:29:54.467Z,6.70
2023-03-11T19:32:21.655Z,3.60
2023-03-11T19:34:48.727Z,3.63
2023-03-11T19:37:20.102Z,5.18
2023-03-11T19:39:49.227Z,3.67
2023-03-11T19:42:16.167Z,3.22
2023-03-11T19:44:43.026Z,5.43
2023-03-11T19:47:12.846Z,4.95
2023-03-11T19:49:42.217Z,5.03
2023-03-11T19:52:09.999Z,4.75
2023-03-11T19:54:37.294Z,5.22
2023-03-11T19:57:04.446Z,7.57
2023-03-11T19:59:31.662Z,9.98
2023-03-11T20:02:01.364Z,11.35
2023-03-11T20:04:30.709Z,11.02
2023-03-11T20:06:59.974Z,10.57
2023-03-11T20:09:27.014Z,8.60
2023-03-11T20:11:56.341Z,7.78
2023-03-11T20:14:25.893Z,8.10
2023-03-11T20:16:55.029Z,9.65
2023-03-11T20:19:22.303Z,8.43
2023-03-11T20:21:51.743Z,7.65
2023-03-11T20:24:18.853Z,8.43
2023-03-11T20:26:51.033Z,7.43
2023-03-11T20:29:20.469Z,7.90
2023-03-11T20:31:51.229Z,9.35
2023-03-11T20:34:20.661Z,6.63
2023-03-11T20:36:48.502Z,6.07
2023-03-11T20:39:19.774Z,9.88
2023-03-11T20:41:46.645Z,8.70
2023-03-11T20:44:16.338Z,9.38
2023-03-11T20:46:46.652Z,10.48
2023-03-11T20:49:17.990Z,9.40
2023-03-11T20:51:48.059Z,11.18
2023-03-11T20:54:16.036Z,6.97
2023-03-11T20:56:43.270Z,8.68
2023-03-11T20:59:15.675Z,7.88
2023-03-11T21:01:43.406Z,7.20
2023-03-11T21:04:15.889Z,4.72
2023-03-11T21:06:52.534Z,5.55
2023-03-11T21:09:19.783Z,8.48
2023-03-11T21:11:46.685Z,5.47
2023-03-11T21:14:20.694Z,4.75
2023-03-11T21:16:48.355Z,7.97
2023-03-11T21:19:15.500Z,5.25
2023-03-11T21:21:44.771Z,5.95
2023-03-11T21:24:14.908Z,4.60
2023-03-11T21:26:44.414Z,6.97
2023-03-11T21:29:11.443Z,7.15
2023-03-11T21:31:38.586Z,6.13
2023-03-11T21:34:10.524Z,6.05
2023-03-11T21:36:37.975Z,6.15
2023-03-11T21:39:08.384Z,5.88
2023-03-11T21:41:35.472Z,8.57
2023-03-11T21:44:02.461Z,5.65
2023-03-11T21:46:32.128Z,11.68
2023-03-11T21:49:04.573Z,15.32
2023-03-11T21:51:33.823Z,18.08
2023-03-11T21:54:05.340Z,16.92
2023-03-11T21:56:35.214Z,17.63
2023-03-11T21:59:05.153Z,15.20
2023-03-11T22:01:32.256Z,11.18
2023-03-11T22:04:04.066Z,11.65
2023-03-11T22:06:34.003Z,11.63
2023-03-11T22:09:06.259Z,15.85
2023-03-11T22:11:33.185Z,13.02
2023-03-11T22:14:01.024Z,16.73
2023-03-11T22:16:28.208Z,14.95
2023-03-11T22:18:55.297Z,18.13
2023-03-11T22:21:22.475Z,19.50
2023-03-11T22:23:49.609Z,15.93
2023-03-11T22:26:19.092Z,14.15
2023-03-11T22:28:50.268Z,12.38
2023-03-11T22:31:18.916Z,13.25
2023-03-11T22:33:46.366Z,12.35
2023-03-11T22:36:15.877Z,11.88
2023-03-11T22:38:45.293Z,9.45
2023-03-11T22:41:20.236Z,9.43
2023-03-11T22:43:49.441Z,3.85
2023-03-11T22:46:16.616Z,3.78
2023-03-11T22:48:43.622Z,3.78
2023-03-11T22:51:13.104Z,6.00
2023-03-11T22:53:42.208Z,6.15
2023-03-11T22:56:15.184Z,6.38
2023-03-11T22:58:42.849Z,7.70
2023-03-11T23:01:10.967Z,5.45
2023-03-11T23:03:38.285Z,7.30
2023-03-11T23:06:10.861Z,6.80
2023-03-11T23:08:37.777Z,6.50
2023-03-11T23:11:08.849Z,4.35
2023-03-11T23:13:36.664Z,4.50
2023-03-11T23:16:14.198Z,4.85
2023-03-11T23:18:43.311Z,4.43
2023-03-11T23:21:27.052Z,5.88
2023-03-11T23:23:55.856Z,3.80
2023-03-11T23:26:25.185Z,9.00
2023-03-11T23:28:54.983Z,9.05
2023-03-11T23:31:26.419Z,8.45
2023-03-11T23:33:55.690Z,5.05
2023-03-11T23:36:30.198Z,4.13
2023-03-11T23:38:59.952Z,5.03
2023-03-11T23:41:30.390Z,7.57
2023-03-11T23:44:00.303Z,3.83
2023-03-11T23:46:27.360Z,5.30
2023-03-11T23:48:56.595Z,4.38
2023-03-11T23:51:23.505Z,3.40
2023-03-11T23:53:53.385Z,3.00
2023-03-11T23:56:23.302Z,3.17
2023-03-11T23:58:50.256Z,5.25
